Time;durP1;ratioP1;P1;durP2;ratioP2;P2;SDS_P1;SDS_P2;PMS_P1;PMS_P2;Temp;Humidity;BMP_temperature;BMP_pressure;BME280_temperature;BME280_humidity;BME280_pressure;Samples;Min_cycle;Max_cycle;Signal;HPM_P1;HPM_P2
2020/05/08 00:00:48;;;;;;;1.69;1.53;;;;;;;19.01;40.79;100792.47;;;;-57
2020/05/08 00:04:42;;;;;;;1.68;1.58;;;;;;;19.00;40.77;100788.17;;;;-56
2020/05/08 00:07:37;;;;;;;2.28;1.47;;;;;;;18.99;40.80;100781.08;;;;-54
2020/05/08 00:18:59;;;;;;;1.55;1.39;;;;;;;18.98;40.81;100770.38;;;;-57
2020/05/08 00:21:27;;;;;;;2.31;1.40;;;;;;;18.98;40.79;100763.52;;;;-56
2020/05/08 00:24:28;;;;;;;1.87;1.53;;;;;;;18.96;40.82;100754.14;;;;-54
2020/05/08 00:27:43;;;;;;;1.86;1.50;;;;;;;18.97;40.81;100754.25;;;;-53
2020/05/08 00:30:28;;;;;;;1.73;1.51;;;;;;;18.96;40.84;100749.02;;;;-56
2020/05/08 00:33:28;;;;;;;1.91;1.58;;;;;;;18.96;40.82;100746.44;;;;-54
2020/05/08 00:36:28;;;;;;;1.76;1.50;;;;;;;18.95;40.81;100739.88;;;;-57
2020/05/08 00:39:28;;;;;;;1.63;1.53;;;;;;;18.95;40.81;100735.02;;;;-56
2020/05/08 00:42:28;;;;;;;1.77;1.48;;;;;;;18.95;40.80;100733.41;;;;-56
2020/05/08 00:45:28;;;;;;;1.59;1.49;;;;;;;18.94;40.82;100728.37;;;;-57
2020/05/08 00:48:27;;;;;;;1.65;1.47;;;;;;;18.93;40.81;100733.75;;;;-56
2020/05/08 00:51:27;;;;;;;1.67;1.55;;;;;;;18.93;40.83;100734.97;;;;-57
2020/05/08 00:54:27;;;;;;;1.61;1.51;;;;;;;18.92;40.83;100736.80;;;;-57
2020/05/08 00:57:28;;;;;;;1.84;1.63;;;;;;;18.93;40.84;100737.31;;;;-56
2020/05/08 01:00:28;;;;;;;1.75;1.65;;;;;;;18.92;40.82;100736.64;;;;-56
2020/05/08 01:03:28;;;;;;;1.54;1.44;;;;;;;18.92;40.81;100736.80;;;;-57
2020/05/08 01:06:28;;;;;;;1.70;1.60;;;;;;;18.92;40.79;100735.53;;;;-56
2020/05/08 01:09:28;;;;;;;2.31;1.44;;;;;;;18.92;40.80;100731.58;;;;-57
2020/05/08 01:12:28;;;;;;;1.77;1.67;;;;;;;18.91;40.83;100734.24;;;;-56
2020/05/08 01:15:28;;;;;;;1.70;1.60;;;;;;;18.91;40.83;100731.40;;;;-57
2020/05/08 01:18:28;;;;;;;1.60;1.50;;;;;;;18.91;40.83;100731.30;;;;-56
2020/05/08 01:21:27;;;;;;;1.77;1.50;;;;;;;18.89;40.81;100726.02;;;;-57
2020/05/08 01:24:27;;;;;;;1.55;1.45;;;;;;;18.90;40.86;100727.56;;;;-56
2020/05/08 01:27:27;;;;;;;2.01;1.57;;;;;;;18.90;40.83;100733.93;;;;-56
2020/05/08 01:30:27;;;;;;;1.69;1.59;;;;;;;18.89;40.85;100730.75;;;;-56
2020/05/08 01:33:27;;;;;;;1.71;1.61;;;;;;;18.88;40.83;100726.05;;;;-57
2020/05/08 01:36:27;;;;;;;1.70;1.60;;;;;;;18.88;40.84;100721.54;;;;-56
2020/05/08 01:39:28;;;;;;;1.51;1.41;;;;;;;18.88;40.85;100723.38;;;;-56
2020/05/08 01:42:28;;;;;;;1.70;1.60;;;;;;;18.88;40.86;100725.34;;;;-56
2020/05/08 01:45:28;;;;;;;1.62;1.52;;;;;;;18.88;40.84;100727.45;;;;-57
2020/05/08 01:48:28;;;;;;;1.62;1.52;;;;;;;18.87;40.85;100725.50;;;;-57
2020/05/08 01:51:28;;;;;;;1.71;1.61;;;;;;;18.87;40.86;100729.13;;;;-57
2020/05/08 01:54:27;;;;;;;1.76;1.61;;;;;;;18.87;40.85;100727.41;;;;-57
2020/05/08 01:57:27;;;;;;;1.67;1.57;;;;;;;18.87;40.84;100729.48;;;;-56
2020/05/08 02:00:27;;;;;;;1.70;1.60;;;;;;;18.86;40.84;100728.91;;;;-57
2020/05/08 02:03:27;;;;;;;1.65;1.55;;;;;;;18.86;40.82;100727.19;;;;-56
2020/05/08 02:06:27;;;;;;;1.70;1.60;;;;;;;18.86;40.86;100729.27;;;;-56
2020/05/08 02:09:27;;;;;;;1.61;1.51;;;;;;;18.85;40.86;100735.67;;;;-56
2020/05/08 02:12:27;;;;;;;1.53;1.43;;;;;;;18.85;40.86;100729.31;;;;-56
2020/05/08 02:15:28;;;;;;;1.60;1.50;;;;;;;18.84;40.86;100725.35;;;;-57
2020/05/08 02:18:28;;;;;;;1.72;1.61;;;;;;;18.84;40.86;100718.89;;;;-56
2020/05/08 02:21:28;;;;;;;1.61;1.51;;;;;;;18.84;40.86;100714.37;;;;-57
2020/05/08 02:24:27;;;;;;;1.70;1.50;;;;;;;18.84;40.86;100714.37;;;;-56
2020/05/08 02:27:27;;;;;;;1.80;1.70;;;;;;;18.84;40.84;100720.95;;;;-56
2020/05/08 02:30:27;;;;;;;1.63;1.53;;;;;;;18.83;40.84;100715.36;;;;-56
2020/05/08 02:33:27;;;;;;;2.21;1.53;;;;;;;18.83;40.84;100721.34;;;;-56
2020/05/08 02:36:27;;;;;;;2.11;1.63;;;;;;;18.83;40.83;100718.39;;;;-56
2020/05/08 02:39:27;;;;;;;1.69;1.59;;;;;;;18.82;40.83;100724.85;;;;-56
2020/05/08 02:42:28;;;;;;;1.71;1.61;;;;;;;18.82;40.84;100727.72;;;;-56
2020/05/08 02:45:27;;;;;;;1.61;1.51;;;;;;;18.81;40.85;100723.30;;;;-56
2020/05/08 02:48:28;;;;;;;1.60;1.50;;;;;;;18.81;40.85;100727.59;;;;-56
2020/05/08 02:51:28;;;;;;;1.60;1.49;;;;;;;18.80;40.85;100727.09;;;;-54
2020/05/08 02:54:27;;;;;;;1.76;1.57;;;;;;;18.80;40.86;100730.33;;;;-54
2020/05/08 02:57:27;;;;;;;1.80;1.60;;;;;;;18.81;40.82;100727.94;;;;-53
2020/05/08 03:00:34;;;;;;;1.65;1.55;;;;;;;18.80;40.86;100727.98;;;;-53
2020/05/08 03:03:43;;;;;;;1.97;1.63;;;;;;;18.78;40.87;100728.16;;;;-54
2020/05/08 03:06:27;;;;;;;1.65;1.55;;;;;;;18.79;40.85;100727.09;;;;-55
2020/05/08 03:09:27;;;;;;;1.60;1.50;;;;;;;18.78;40.88;100724.70;;;;-54
2020/05/08 03:12:28;;;;;;;1.65;1.55;;;;;;;18.78;40.86;100726.38;;;;-53
2020/05/08 03:15:28;;;;;;;1.65;1.55;;;;;;;18.78;40.81;100730.72;;;;-54
2020/05/08 03:18:28;;;;;;;1.61;1.51;;;;;;;18.77;40.89;100730.58;;;;-53
2020/05/08 03:21:28;;;;;;;1.69;1.59;;;;;;;18.77;40.84;100730.84;;;;-54
2020/05/08 03:24:28;;;;;;;1.70;1.60;;;;;;;18.77;40.86;100730.58;;;;-54
2020/05/08 03:27:27;;;;;;;1.95;1.83;;;;;;;18.76;40.85;100728.72;;;;-54
2020/05/08 03:30:27;;;;;;;1.70;1.60;;;;;;;18.76;40.84;100726.28;;;;-54
2020/05/08 03:33:27;;;;;;;1.80;1.63;;;;;;;18.75;40.86;100720.81;;;;-54
2020/05/08 03:36:27;;;;;;;1.71;1.61;;;;;;;18.75;40.82;100717.52;;;;-54
2020/05/08 03:39:27;;;;;;;2.56;1.61;;;;;;;18.75;40.83;100716.36;;;;-54
2020/05/08 03:42:27;;;;;;;1.69;1.59;;;;;;;18.75;40.83;100714.95;;;;-54
2020/05/08 03:45:27;;;;;;;1.70;1.60;;;;;;;18.77;40.80;100715.28;;;;-54
2020/05/08 03:48:28;;;;;;;1.67;1.57;;;;;;;18.77;40.75;100712.00;;;;-54
2020/05/08 03:51:28;;;;;;;2.17;1.61;;;;;;;18.79;40.67;100714.33;;;;-54
2020/05/08 03:54:27;;;;;;;1.75;1.65;;;;;;;18.81;40.67;100713.71;;;;-54
2020/05/08 03:57:28;;;;;;;1.77;1.67;;;;;;;18.84;40.68;100716.27;;;;-54
2020/05/08 04:00:27;;;;;;;1.56;1.46;;;;;;;18.85;40.68;100718.37;;;;-54
2020/05/08 04:03:27;;;;;;;1.80;1.60;;;;;;;18.88;40.69;100714.01;;;;-53
2020/05/08 04:06:27;;;;;;;1.77;1.67;;;;;;;18.91;40.74;100720.92;;;;-54
2020/05/08 04:09:27;;;;;;;1.58;1.48;;;;;;;18.94;40.80;100726.92;;;;-54
2020/05/08 04:12:27;;;;;;;1.71;1.61;;;;;;;18.97;40.79;100725.91;;;;-55
2020/05/08 04:15:27;;;;;;;1.72;1.62;;;;;;;19.00;40.82;100721.94;;;;-54
2020/05/08 04:18:27;;;;;;;1.99;1.63;;;;;;;19.04;40.82;100721.37;;;;-55
2020/05/08 04:21:28;;;;;;;1.77;1.61;;;;;;;19.05;40.86;100722.37;;;;-54
2020/05/08 04:24:28;;;;;;;2.73;1.72;;;;;;;19.08;40.87;100726.03;;;;-55
2020/05/08 04:27:28;;;;;;;1.61;1.51;;;;;;;19.11;40.88;100729.80;;;;-54
2020/05/08 04:30:27;;;;;;;1.77;1.67;;;;;;;19.15;40.92;100731.34;;;;-54
2020/05/08 04:33:27;;;;;;;1.85;1.70;;;;;;;19.16;40.85;100730.16;;;;-54
2020/05/08 04:36:27;;;;;;;1.77;1.67;;;;;;;19.18;40.90;100732.87;;;;-54
2020/05/08 04:39:27;;;;;;;1.77;1.67;;;;;;;19.20;40.87;100728.91;;;;-54
2020/05/08 04:42:27;;;;;;;1.75;1.65;;;;;;;19.21;40.81;100728.73;;;;-54
2020/05/08 04:45:27;;;;;;;1.81;1.69;;;;;;;19.24;40.81;100732.79;;;;-54
2020/05/08 04:48:27;;;;;;;1.72;1.62;;;;;;;19.25;40.85;100733.17;;;;-54
2020/05/08 04:51:27;;;;;;;1.91;1.69;;;;;;;19.26;40.80;100733.91;;;;-54
2020/05/08 04:54:28;;;;;;;1.70;1.60;;;;;;;19.26;40.75;100735.34;;;;-54
2020/05/08 04:57:27;;;;;;;1.90;1.78;;;;;;;19.27;40.74;100736.23;;;;-54
2020/05/08 05:00:27;;;;;;;2.32;1.60;;;;;;;19.28;40.78;100740.53;;;;-54
2020/05/08 05:03:27;;;;;;;1.60;1.50;;;;;;;19.29;40.71;100743.09;;;;-54
2020/05/08 05:06:27;;;;;;;1.64;1.54;;;;;;;19.29;40.64;100751.73;;;;-55
2020/05/08 05:09:27;;;;;;;1.70;1.60;;;;;;;19.29;40.70;100758.84;;;;-54
2020/05/08 05:12:27;;;;;;;1.69;1.59;;;;;;;19.29;40.65;100756.16;;;;-54
2020/05/08 05:15:27;;;;;;;1.83;1.68;;;;;;;19.30;40.67;100760.72;;;;-55
2020/05/08 05:18:27;;;;;;;1.69;1.59;;;;;;;19.30;40.68;100767.08;;;;-54
2020/05/08 05:21:27;;;;;;;1.70;1.60;;;;;;;19.30;40.63;100771.77;;;;-54
2020/05/08 05:24:27;;;;;;;2.72;1.70;;;;;;;19.30;40.67;100768.49;;;;-54
2020/05/08 05:27:27;;;;;;;1.75;1.65;;;;;;;19.30;40.63;100775.02;;;;-54
2020/05/08 05:30:28;;;;;;;1.70;1.60;;;;;;;19.30;40.63;100774.30;;;;-54
2020/05/08 05:33:28;;;;;;;1.91;1.70;;;;;;;19.30;40.65;100779.21;;;;-54
2020/05/08 05:36:30;;;;;;;1.71;1.61;;;;;;;19.30;40.63;100776.30;;;;-57
2020/05/08 05:39:30;;;;;;;1.89;1.67;;;;;;;19.29;40.57;100776.69;;;;-57
2020/05/08 05:43:13;;;;;;;1.87;1.70;;;;;;;19.29;40.58;100781.88;;;;-56
2020/05/08 05:46:27;;;;;;;1.71;1.61;;;;;;;19.29;40.62;100780.84;;;;-57
2020/05/08 05:49:27;;;;;;;1.69;1.59;;;;;;;19.29;40.60;100785.13;;;;-57
2020/05/08 05:52:27;;;;;;;2.46;1.61;;;;;;;19.29;40.55;100783.72;;;;-57
2020/05/08 05:55:27;;;;;;;1.95;1.75;;;;;;;19.29;40.55;100790.31;;;;-56
2020/05/08 05:58:27;;;;;;;1.70;1.60;;;;;;;19.29;40.55;100789.20;;;;-56
2020/05/08 06:01:27;;;;;;;2.01;1.81;;;;;;;19.29;40.58;100791.48;;;;-56
2020/05/08 06:04:27;;;;;;;1.88;1.77;;;;;;;19.29;40.54;100792.48;;;;-57
2020/05/08 06:07:27;;;;;;;1.83;1.60;;;;;;;19.28;40.50;100796.23;;;;-56
2020/05/08 06:10:27;;;;;;;1.85;1.75;;;;;;;19.28;40.46;100796.23;;;;-57
2020/05/08 06:13:27;;;;;;;2.14;1.70;;;;;;;19.28;40.58;100800.14;;;;-56
2020/05/08 06:16:27;;;;;;;1.67;1.57;;;;;;;19.28;40.55;100798.30;;;;-57
2020/05/08 06:19:27;;;;;;;1.70;1.60;;;;;;;19.29;40.51;100798.68;;;;-57
2020/05/08 06:22:27;;;;;;;1.69;1.59;;;;;;;19.28;40.50;100795.39;;;;-56
2020/05/08 06:25:27;;;;;;;1.69;1.59;;;;;;;19.28;40.49;100799.75;;;;-57
2020/05/08 06:28:27;;;;;;;1.75;1.63;;;;;;;19.28;40.49;100798.03;;;;-56
2020/05/08 06:31:27;;;;;;;1.93;1.64;;;;;;;19.28;40.50;100796.46;;;;-56
2020/05/08 06:34:27;;;;;;;1.60;1.50;;;;;;;19.28;40.48;100794.89;;;;-57
2020/05/08 06:37:28;;;;;;;1.87;1.70;;;;;;;19.28;40.47;100791.00;;;;-57
2020/05/08 06:40:27;;;;;;;1.99;1.84;;;;;;;19.27;40.48;100786.87;;;;-56
2020/05/08 06:43:27;;;;;;;1.83;1.60;;;;;;;19.28;40.50;100782.96;;;;-57
2020/05/08 06:46:27;;;;;;;1.81;1.60;;;;;;;19.28;40.53;100786.85;;;;-57
2020/05/08 06:49:27;;;;;;;1.84;1.65;;;;;;;19.28;40.48;100782.39;;;;-56
2020/05/08 06:52:27;;;;;;;1.75;1.65;;;;;;;19.28;40.48;100785.91;;;;-57
2020/05/08 06:55:27;;;;;;;1.77;1.67;;;;;;;19.28;40.47;100782.06;;;;-57
2020/05/08 06:58:27;;;;;;;1.80;1.70;;;;;;;19.28;40.45;100775.70;;;;-57
2020/05/08 07:01:27;;;;;;;1.75;1.65;;;;;;;19.28;40.44;100775.20;;;;-56
2020/05/08 07:04:27;;;;;;;1.80;1.70;;;;;;;19.28;40.46;100771.78;;;;-57
2020/05/08 07:07:27;;;;;;;1.71;1.61;;;;;;;19.28;40.44;100766.72;;;;-56
2020/05/08 07:10:27;;;;;;;2.21;1.71;;;;;;;19.28;40.45;100767.77;;;;-57
2020/05/08 07:13:27;;;;;;;2.03;1.60;;;;;;;19.28;40.40;100761.69;;;;-56
2020/05/08 07:16:27;;;;;;;1.85;1.75;;;;;;;19.28;40.48;100765.48;;;;-57
2020/05/08 07:19:33;;;;;;;1.65;1.55;;;;;;;19.28;40.44;100769.33;;;;-57
2020/05/08 07:22:27;;;;;;;1.78;1.68;;;;;;;19.29;40.64;100765.97;;;;-60
2020/05/08 07:25:27;;;;;;;3.21;1.77;;;;;;;19.31;41.08;100769.31;;;;-53
2020/05/08 07:28:27;;;;;;;2.87;1.67;;;;;;;19.33;41.52;100766.56;;;;-55
2020/05/08 07:31:27;;;;;;;2.99;1.62;;;;;;;19.33;41.41;100765.06;;;;-56
2020/05/08 07:34:27;;;;;;;3.51;1.87;;;;;;;19.35;41.45;100761.54;;;;-53
2020/05/08 07:37:27;;;;;;;1.91;1.53;;;;;;;19.36;41.37;100756.95;;;;-55
2020/05/08 07:40:27;;;;;;;1.70;1.60;;;;;;;19.38;41.40;100755.39;;;;-55
2020/05/08 07:43:27;;;;;;;1.99;1.60;;;;;;;19.39;41.40;100756.31;;;;-51
2020/05/08 07:46:27;;;;;;;1.60;1.50;;;;;;;19.42;41.35;100756.42;;;;-52
2020/05/08 07:49:27;;;;;;;1.75;1.65;;;;;;;19.43;41.40;100754.17;;;;-53
2020/05/08 07:52:27;;;;;;;1.81;1.50;;;;;;;19.45;41.43;100751.42;;;;-52
2020/05/08 07:55:27;;;;;;;4.00;1.66;;;;;;;19.47;41.37;100753.09;;;;-51
2020/05/08 07:58:27;;;;;;;9.17;3.30;;;;;;;19.41;41.12;100747.20;;;;-47
2020/05/08 08:01:27;;;;;;;7.61;3.58;;;;;;;19.43;41.21;100743.75;;;;-52
2020/05/08 08:04:27;;;;;;;4.19;2.77;;;;;;;19.45;41.24;100738.36;;;;-56
2020/05/08 08:07:27;;;;;;;5.67;2.61;;;;;;;19.47;41.17;100738.02;;;;-54
2020/05/08 08:10:27;;;;;;;5.55;2.57;;;;;;;19.48;41.13;100732.37;;;;-61
2020/05/08 08:13:27;;;;;;;7.57;2.49;;;;;;;19.49;41.02;100735.66;;;;-61
2020/05/08 08:16:27;;;;;;;5.65;2.46;;;;;;;19.48;41.22;100732.14;;;;-55
2020/05/08 08:19:32;;;;;;;5.55;2.27;;;;;;;19.50;41.28;100733.23;;;;-55
2020/05/08 08:22:27;;;;;;;8.68;2.50;;;;;;;19.50;41.02;100736.15;;;;-55
2020/05/08 08:25:27;;;;;;;3.49;2.09;;;;;;;19.50;40.92;100727.78;;;;-55
2020/05/08 08:28:27;;;;;;;8.25;2.39;;;;;;;19.51;41.10;100727.89;;;;-55
2020/05/08 08:31:27;;;;;;;7.23;2.23;;;;;;;19.50;40.91;100726.38;;;;-55
2020/05/08 08:34:31;;;;;;;5.58;2.47;;;;;;;19.50;40.86;100725.03;;;;-54
2020/05/08 08:43:36;;;;;;;4.67;2.13;;;;;;;19.49;40.85;100722.27;;;;-56
2020/05/08 08:46:38;;;;;;;2.65;2.17;;;;;;;19.48;40.80;100721.65;;;;-55
2020/05/08 08:49:27;;;;;;;2.32;1.90;;;;;;;19.48;40.81;100718.98;;;;-55
2020/05/08 08:52:27;;;;;;;3.11;2.00;;;;;;;19.48;40.75;100712.28;;;;-54
2020/05/08 08:55:27;;;;;;;3.87;1.97;;;;;;;19.47;40.72;100707.36;;;;-55
2020/05/08 08:58:27;;;;;;;4.92;2.05;;;;;;;19.46;40.77;100702.23;;;;-55
2020/05/08 09:04:27;;;;;;;2.55;1.93;;;;;;;19.46;40.72;100699.95;;;;-53
2020/05/08 09:07:27;;;;;;;2.90;1.88;;;;;;;19.45;40.73;100698.55;;;;-53
2020/05/08 09:10:27;;;;;;;2.72;1.81;;;;;;;19.44;40.67;100700.86;;;;-53
2020/05/08 09:13:27;;;;;;;2.51;1.81;;;;;;;19.45;40.73;100700.46;;;;-53
2020/05/08 09:16:27;;;;;;;2.26;1.79;;;;;;;19.44;40.69;100699.69;;;;-53
2020/05/08 09:19:27;;;;;;;2.77;1.86;;;;;;;19.44;40.69;100696.33;;;;-53
2020/05/08 09:22:27;;;;;;;2.42;1.81;;;;;;;19.43;40.67;100692.99;;;;-53
2020/05/08 09:25:27;;;;;;;1.90;1.79;;;;;;;19.43;40.68;100690.69;;;;-53
2020/05/08 09:28:27;;;;;;;3.11;1.89;;;;;;;19.42;40.67;100683.17;;;;-53
2020/05/08 09:31:27;;;;;;;3.23;1.92;;;;;;;19.42;40.76;100684.84;;;;-52
2020/05/08 09:34:27;;;;;;;3.02;1.90;;;;;;;19.43;40.99;100684.22;;;;-56
2020/05/08 09:37:27;;;;;;;3.11;1.69;;;;;;;19.44;41.03;100682.26;;;;-56
2020/05/08 09:40:27;;;;;;;4.62;1.90;;;;;;;19.44;41.09;100674.83;;;;-56
2020/05/08 09:43:27;;;;;;;3.79;1.80;;;;;;;19.45;41.14;100669.47;;;;-56
2020/05/08 09:46:27;;;;;;;2.30;1.78;;;;;;;19.45;41.15;100667.17;;;;-53
2020/05/08 09:49:27;;;;;;;2.93;1.78;;;;;;;19.45;41.26;100666.16;;;;-54
2020/05/08 09:52:27;;;;;;;3.21;1.77;;;;;;;19.47;41.31;100662.70;;;;-51
2020/05/08 09:55:27;;;;;;;2.98;1.77;;;;;;;19.46;41.28;100660.19;;;;-53
2020/05/08 09:58:27;;;;;;;3.45;1.83;;;;;;;19.48;41.30;100658.10;;;;-51
2020/05/08 10:01:27;;;;;;;5.26;1.84;;;;;;;19.48;41.28;100658.50;;;;-53
2020/05/08 10:04:27;;;;;;;2.09;1.84;;;;;;;19.49;41.30;100656.05;;;;-49
2020/05/08 10:07:27;;;;;;;2.25;1.87;;;;;;;19.50;41.38;100654.84;;;;-50
2020/05/08 10:10:27;;;;;;;2.05;1.81;;;;;;;19.51;41.38;100652.84;;;;-56
2020/05/08 10:13:27;;;;;;;4.53;1.77;;;;;;;19.51;41.26;100645.01;;;;-56
2020/05/08 10:16:27;;;;;;;2.49;1.83;;;;;;;19.50;41.23;100643.95;;;;-56
2020/05/08 10:19:27;;;;;;;3.15;1.82;;;;;;;19.50;41.19;100640.73;;;;-56
2020/05/08 10:22:27;;;;;;;2.60;1.83;;;;;;;19.49;41.16;100634.27;;;;-51
2020/05/08 10:25:27;;;;;;;1.81;1.59;;;;;;;19.48;41.08;100632.53;;;;-52
2020/05/08 10:28:27;;;;;;;2.90;1.65;;;;;;;19.48;41.07;100633.04;;;;-51
2020/05/08 10:31:27;;;;;;;3.10;1.61;;;;;;;19.47;41.02;100627.46;;;;-52
2020/05/08 10:34:31;;;;;;;3.66;1.79;;;;;;;19.49;41.39;100625.95;;;;-54
2020/05/08 10:37:27;;;;;;;2.37;1.73;;;;;;;19.49;41.34;100623.04;;;;-53
2020/05/08 10:40:27;;;;;;;4.64;1.70;;;;;;;19.50;41.34;100616.39;;;;-53
2020/05/08 10:43:27;;;;;;;3.65;1.83;;;;;;;19.51;41.34;100617.20;;;;-53
2020/05/08 10:46:27;;;;;;;2.45;1.74;;;;;;;19.51;41.31;100618.27;;;;-52
2020/05/08 10:49:29;;;;;;;2.35;1.71;;;;;;;19.50;41.19;100608.91;;;;-53
2020/05/08 10:52:27;;;;;;;2.66;1.67;;;;;;;19.48;41.24;100605.84;;;;-53
2020/05/08 10:58:27;;;;;;;3.38;1.80;;;;;;;19.47;41.13;100610.39;;;;-53
2020/05/08 11:01:27;;;;;;;2.31;1.80;;;;;;;19.47;41.12;100606.63;;;;-53
2020/05/08 11:04:27;;;;;;;2.83;1.70;;;;;;;19.46;41.07;100604.91;;;;-53
2020/05/08 11:07:27;;;;;;;3.63;1.77;;;;;;;19.46;41.07;100602.46;;;;-53
2020/05/08 11:10:27;;;;;;;4.32;1.63;;;;;;;19.46;41.04;100600.28;;;;-53
2020/05/08 11:13:27;;;;;;;2.08;1.69;;;;;;;19.46;41.01;100598.84;;;;-53
2020/05/08 11:16:27;;;;;;;2.86;1.59;;;;;;;19.45;40.99;100592.30;;;;-53
2020/05/08 11:19:27;;;;;;;2.15;1.65;;;;;;;19.44;40.97;100584.62;;;;-53
2020/05/08 11:22:27;;;;;;;2.34;1.51;;;;;;;19.44;40.95;100587.30;;;;-53
2020/05/08 11:25:27;;;;;;;2.15;1.60;;;;;;;19.43;40.97;100581.89;;;;-53
2020/05/08 11:28:27;;;;;;;2.47;1.66;;;;;;;19.43;40.92;100580.08;;;;-53
2020/05/08 11:31:29;;;;;;;1.85;1.63;;;;;;;19.44;40.93;100574.62;;;;-53
2020/05/08 11:34:27;;;;;;;1.81;1.60;;;;;;;19.43;40.91;100570.53;;;;-53
2020/05/08 11:37:27;;;;;;;2.50;1.65;;;;;;;19.43;40.85;100570.09;;;;-53
2020/05/08 11:40:27;;;;;;;1.86;1.70;;;;;;;19.43;40.87;100566.81;;;;-52
2020/05/08 11:43:27;;;;;;;2.39;1.70;;;;;;;19.42;40.85;100562.58;;;;-52
2020/05/08 11:46:27;;;;;;;1.65;1.54;;;;;;;19.41;40.88;100558.45;;;;-53
2020/05/08 11:49:27;;;;;;;2.94;1.59;;;;;;;19.41;40.83;100556.00;;;;-53
2020/05/08 11:52:27;;;;;;;1.86;1.69;;;;;;;19.41;40.89;100557.84;;;;-53
2020/05/08 11:55:27;;;;;;;1.75;1.52;;;;;;;19.40;40.87;100551.33;;;;-53
2020/05/08 11:58:31;;;;;;;2.30;1.61;;;;;;;19.41;40.85;100550.64;;;;-53
2020/05/08 12:04:29;;;;;;;2.70;1.85;;;;;;;19.43;41.04;100543.13;;;;-56
2020/05/08 12:07:49;;;;;;;2.96;1.77;;;;;;;19.44;41.05;100541.06;;;;-54
2020/05/08 12:17:46;;;;;;;2.49;1.61;;;;;;;19.47;41.13;100531.50;;;;-53
2020/05/08 12:25:37;;;;;;;2.25;1.66;;;;;;;19.50;41.22;100525.49;;;;-53
2020/05/08 12:43:39;;;;;;;2.29;1.53;;;;;;;19.49;41.17;100512.72;;;;-56
2020/05/08 13:11:04;;;;;;;1.89;1.46;;;;;;;19.44;40.95;100499.03;;;;-56
2020/05/08 13:14:25;;;;;;;2.27;1.60;;;;;;;19.44;40.98;100503.45;;;;-56
2020/05/08 13:17:40;;;;;;;2.28;1.50;;;;;;;19.44;40.95;100499.53;;;;-56
2020/05/08 14:12:29;;;;;;;3.31;1.42;;;;;;;19.39;40.84;100449.94;;;;-56
2020/05/08 14:31:50;;;;;;;1.67;1.49;;;;;;;19.38;40.87;100417.09;;;;-56
2020/05/08 14:38:00;;;;;;;1.96;1.40;;;;;;;19.38;40.85;100400.52;;;;-56
2020/05/08 15:35:31;;;;;;;1.50;1.40;;;;;;;19.34;40.81;100375.36;;;;-56
2020/05/08 16:02:36;;;;;;;1.43;1.33;;;;;;;19.34;40.76;100362.44;;;;-56
2020/05/08 16:09:35;;;;;;;1.34;1.24;;;;;;;19.34;40.75;100367.39;;;;-55
2020/05/08 16:12:41;;;;;;;1.45;1.35;;;;;;;19.34;40.78;100364.14;;;;-56
2020/05/08 16:15:40;;;;;;;1.41;1.31;;;;;;;19.34;40.79;100363.48;;;;-56
2020/05/08 16:21:32;;;;;;;2.13;1.35;;;;;;;19.34;40.75;100362.77;;;;-55
2020/05/08 16:32:55;;;;;;;1.50;1.40;;;;;;;19.35;40.79;100351.02;;;;-56
2020/05/08 16:35:38;;;;;;;1.53;1.43;;;;;;;19.35;40.76;100341.14;;;;-56
2020/05/08 16:38:38;;;;;;;1.49;1.39;;;;;;;19.34;40.73;100340.66;;;;-56
2020/05/08 16:42:23;;;;;;;1.41;1.31;;;;;;;19.34;40.73;100345.95;;;;-56
2020/05/08 16:48:47;;;;;;;1.49;1.39;;;;;;;19.33;40.75;100337.98;;;;-56
2020/05/08 17:06:36;;;;;;;1.81;1.30;;;;;;;19.33;40.76;100339.22;;;;-53
2020/05/08 17:23:24;;;;;;;1.39;1.29;;;;;;;19.34;40.75;100342.84;;;;-53
2020/05/08 17:29:38;;;;;;;1.48;1.38;;;;;;;19.35;40.71;100348.51;;;;-53
2020/05/08 17:56:42;;;;;;;1.39;1.29;;;;;;;19.36;40.69;100352.53;;;;-58
2020/05/08 18:07:29;;;;;;;1.76;1.34;;;;;;;19.34;40.74;100346.79;;;;-60
2020/05/08 18:32:45;;;;;;;1.40;1.30;;;;;;;19.34;40.70;100344.89;;;;-58
2020/05/08 18:39:36;;;;;;;1.39;1.29;;;;;;;19.35;40.73;100335.28;;;;-58
2020/05/08 18:42:33;;;;;;;1.29;1.19;;;;;;;19.34;40.69;100331.63;;;;-58
2020/05/08 18:45:33;;;;;;;1.33;1.23;;;;;;;19.35;40.70;100332.00;;;;-58
2020/05/08 19:11:53;;;;;;;1.43;1.33;;;;;;;19.34;40.71;100334.34;;;;-59
2020/05/08 19:49:36;;;;;;;3.68;1.41;;;;;;;19.46;41.38;100345.87;;;;-53
2020/05/08 19:56:17;;;;;;;2.17;1.52;;;;;;;19.49;41.42;100346.27;;;;-63
2020/05/08 20:16:27;;;;;;;1.75;1.50;;;;;;;19.51;41.48;100329.50;;;;-52
2020/05/08 20:35:29;;;;;;;3.91;1.52;;;;;;;19.56;41.59;100324.02;;;;-54
2020/05/08 20:46:08;;;;;;;3.12;1.72;;;;;;;19.55;41.41;100321.36;;;;-53
2020/05/08 20:52:30;;;;;;;1.87;1.51;;;;;;;19.50;41.45;100314.22;;;;-52
2020/05/08 20:55:43;;;;;;;2.58;1.61;;;;;;;19.49;41.40;100314.95;;;;-54
2020/05/08 21:01:28;;;;;;;1.69;1.59;;;;;;;19.48;41.39;100312.86;;;;-55
2020/05/08 21:28:28;;;;;;;1.67;1.57;;;;;;;19.40;41.27;100305.69;;;;-53
2020/05/08 21:48:53;;;;;;;1.62;1.52;;;;;;;19.35;41.22;100322.72;;;;-54
2020/05/08 22:00:39;;;;;;;1.60;1.50;;;;;;;19.33;41.17;100309.64;;;;-54
2020/05/08 22:33:43;;;;;;;2.42;1.70;;;;;;;19.26;41.21;100313.73;;;;-54
2020/05/08 22:40:25;;;;;;;1.66;1.56;;;;;;;19.25;41.21;100317.03;;;;-53
2020/05/08 22:46:37;;;;;;;1.60;1.50;;;;;;;19.24;41.21;100302.50;;;;-55
2020/05/08 23:31:14;;;;;;;1.66;1.56;;;;;;;19.18;41.23;100299.05;;;;-52
2020/05/08 23:34:11;;;;;;;1.63;1.53;;;;;;;19.17;41.21;100295.87;;;;-53
